KBKT/BKT METAR and TAF weather

Enter ICAO airport designator
Station Type Date Time Source
KBKT METAR 2021/04/13 23:15 UTC NOAA

KBKT 132315Z AUTO 10003KT 10SM CLR 19/08 A3003 RMK AO1 T01930084


Station Type Date Time Source
KBKT Decoded METAR 2021/04/13 23:15 UTC NOAA

Ft. Pickett / Blackstone, VA, United States (KBKT) 37-05N 077-57W
Apr 13, 2021 - 07:15 PM EDT / 2021.04.13 2315 UTC
Wind: from the E (100 degrees) at 3 MPH (3 KT):0
Visibility: 10 mile(s):0
Sky conditions: clear
Temperature: 66.7 F (19.3 C)
Dew Point: 47.1 F (8.4 C)
Relative Humidity: 49%
Pressure (altimeter): 30.03 in. Hg (1016 hPa)
ob: KBKT 132315Z AUTO 10003KT 10SM CLR 19/08 A3003 RMK AO1 T01930084
cycle: 23

Station Type Date Time Source
KBKT TAF UTC NOAA

Error!

Example: see airport list